createdAt,value
2022-10-01T00:01:58.162Z,6.28
2022-10-01T00:04:24.806Z,6.29
2022-10-01T00:06:51.271Z,6.21
2022-10-01T00:09:18.309Z,6.20
2022-10-01T00:11:44.789Z,6.19
2022-10-01T00:14:11.259Z,6.22
2022-10-01T00:16:38.193Z,6.22
2022-10-01T00:19:04.757Z,6.24
2022-10-01T00:21:32.437Z,6.26
2022-10-01T00:24:04.811Z,6.29
2022-10-01T00:26:32.654Z,6.33
2022-10-01T00:29:05.185Z,6.34
2022-10-01T00:31:32.496Z,6.30
2022-10-01T00:34:02.789Z,6.45
2022-10-01T00:36:29.854Z,6.44
2022-10-01T00:39:00.320Z,6.50
2022-10-01T00:41:28.777Z,6.53
2022-10-01T00:44:00.719Z,6.52
2022-10-01T00:46:38.823Z,6.50
2022-10-01T00:49:10.339Z,6.49
2022-10-01T00:51:42.633Z,6.50
2022-10-01T00:54:15.297Z,6.52
2022-10-01T00:56:43.891Z,6.51
2022-10-01T00:59:12.036Z,6.54
2022-10-01T01:01:39.321Z,6.57
2022-10-01T01:04:16.575Z,6.59
2022-10-01T01:06:47.629Z,6.61
2022-10-01T01:09:14.422Z,6.59
2022-10-01T01:12:05.270Z,6.66
2022-10-01T01:14:41.949Z,6.75
2022-10-01T01:17:18.395Z,6.71
2022-10-01T01:19:47.904Z,6.64
2022-10-01T01:22:16.328Z,6.58
2022-10-01T01:24:55.902Z,6.57
2022-10-01T01:27:36.003Z,6.61
2022-10-01T01:30:15.057Z,6.67
2022-10-01T01:32:50.356Z,6.67
2022-10-01T01:35:44.130Z,6.73
2022-10-01T01:38:15.700Z,6.68
2022-10-01T01:40:44.514Z,6.57
2022-10-01T01:43:20.483Z,6.67
2022-10-01T01:45:53.692Z,6.60
2022-10-01T01:48:20.384Z,6.60
2022-10-01T01:50:52.426Z,6.53
2022-10-01T01:53:20.202Z,6.35
2022-10-01T01:55:49.396Z,6.49
2022-10-01T01:58:18.668Z,6.44
2022-10-01T02:00:48.390Z,6.44
2022-10-01T02:03:14.927Z,6.47
2022-10-01T02:05:51.696Z,6.43
2022-10-01T02:08:24.375Z,6.54
2022-10-01T02:10:59.879Z,6.58
2022-10-01T02:13:45.577Z,6.59
2022-10-01T02:16:27.558Z,6.64
2022-10-01T02:19:05.078Z,6.63
2022-10-01T02:21:39.653Z,6.69
2022-10-01T02:24:14.578Z,6.69
2022-10-01T02:26:43.434Z,6.73
2022-10-01T02:29:13.569Z,6.78
2022-10-01T02:31:41.385Z,6.80
2022-10-01T02:34:12.733Z,6.79
2022-10-01T02:36:41.631Z,6.88
2022-10-01T02:39:09.827Z,6.82
2022-10-01T02:41:37.046Z,6.96
2022-10-01T02:44:12.382Z,7.01
2022-10-01T02:46:52.404Z,7.08
2022-10-01T02:49:19.268Z,7.09
2022-10-01T02:52:02.574Z,7.11
2022-10-01T02:54:40.303Z,7.11
2022-10-01T02:57:27.181Z,7.09
2022-10-01T02:59:57.134Z,7.07
2022-10-01T03:02:28.255Z,7.06
2022-10-01T03:04:58.940Z,7.08
2022-10-01T03:07:27.380Z,6.99
2022-10-01T03:09:54.639Z,7.03
2022-10-01T03:12:21.925Z,7.06
2022-10-01T03:14:48.454Z,7.07
2022-10-01T03:17:16.227Z,7.08
2022-10-01T03:19:42.912Z,7.05
2022-10-01T03:22:13.088Z,7.06
2022-10-01T03:24:39.549Z,7.09
2022-10-01T03:27:06.639Z,7.15
2022-10-01T03:29:33.416Z,7.16
2022-10-01T03:31:59.951Z,7.15
2022-10-01T03:34:26.624Z,7.04
2022-10-01T03:36:53.321Z,7.06
2022-10-01T03:39:20.038Z,6.97
2022-10-01T03:41:46.544Z,6.90
2022-10-01T03:44:13.053Z,6.78
2022-10-01T03:46:39.609Z,6.70
2022-10-01T03:49:06.107Z,6.66
2022-10-01T03:51:33.680Z,6.62
2022-10-01T03:54:00.309Z,6.55
2022-10-01T03:56:26.853Z,6.45
2022-10-01T03:58:53.341Z,6.38
2022-10-01T04:01:20.360Z,6.36
2022-10-01T04:03:47.157Z,6.31
2022-10-01T04:06:13.746Z,6.34
2022-10-01T04:08:40.514Z,6.28
2022-10-01T04:11:07.627Z,6.43
2022-10-01T04:13:34.897Z,6.56
2022-10-01T04:16:05.505Z,6.68
2022-10-01T04:18:32.233Z,6.78
2022-10-01T04:20:58.949Z,6.84
2022-10-01T04:23:26.697Z,6.86
2022-10-01T04:25:53.397Z,6.90
2022-10-01T04:28:20.119Z,6.91
2022-10-01T04:30:46.877Z,6.93
2022-10-01T04:33:16.055Z,6.91
2022-10-01T04:35:43.595Z,6.89
2022-10-01T04:38:16.529Z,6.94
2022-10-01T04:40:43.019Z,6.91
2022-10-01T04:43:11.127Z,6.87
2022-10-01T04:45:38.006Z,6.81
2022-10-01T04:48:05.247Z,6.80
2022-10-01T04:50:32.612Z,6.71
2022-10-01T04:52:59.318Z,6.60
2022-10-01T04:55:25.887Z,6.59
2022-10-01T04:57:52.337Z,6.49
2022-10-01T05:00:22.008Z,6.56
2022-10-01T05:02:49.919Z,6.49
2022-10-01T05:05:18.166Z,6.44
2022-10-01T05:07:45.636Z,6.39
2022-10-01T05:10:15.661Z,6.38
2022-10-01T05:12:42.363Z,6.33
2022-10-01T05:15:09.886Z,6.29
2022-10-01T05:17:36.624Z,6.26
2022-10-01T05:20:06.051Z,6.26
2022-10-01T05:22:33.159Z,6.27
2022-10-01T05:25:01.154Z,6.29
2022-10-01T05:27:28.133Z,6.29
2022-10-01T05:29:54.948Z,6.30
2022-10-01T05:32:21.411Z,6.38
2022-10-01T05:34:52.619Z,6.47
2022-10-01T05:37:19.844Z,6.55
2022-10-01T05:39:46.625Z,6.51
2022-10-01T05:42:13.138Z,6.65
2022-10-01T05:44:46.027Z,6.69
2022-10-01T05:47:14.156Z,6.69
2022-10-01T05:49:42.894Z,6.70
2022-10-01T05:52:14.125Z,6.74
2022-10-01T05:54:41.414Z,6.84
2022-10-01T05:57:08.522Z,6.81
2022-10-01T05:59:35.452Z,6.96
2022-10-01T06:02:04.013Z,7.08
2022-10-01T06:04:30.928Z,7.11
2022-10-01T06:06:57.574Z,7.24
2022-10-01T06:09:24.031Z,7.33
2022-10-01T06:11:50.612Z,7.51
2022-10-01T06:14:17.083Z,7.73
2022-10-01T06:16:43.795Z,7.93
2022-10-01T06:19:10.492Z,7.98
2022-10-01T06:21:37.398Z,8.13
2022-10-01T06:24:04.245Z,8.30
2022-10-01T06:26:31.275Z,8.59
2022-10-01T06:28:57.809Z,8.75
2022-10-01T06:31:25.249Z,9.02
2022-10-01T06:33:51.863Z,9.26
2022-10-01T06:36:18.500Z,10.18
2022-10-01T06:38:48.268Z,11.31
2022-10-01T06:41:14.941Z,12.50
2022-10-01T06:43:41.459Z,12.87
2022-10-01T06:46:08.048Z,13.17
2022-10-01T06:48:36.426Z,14.50
2022-10-01T06:51:04.133Z,14.70
2022-10-01T06:53:30.880Z,13.40
2022-10-01T06:55:57.820Z,12.54
2022-10-01T06:58:28.312Z,13.82
2022-10-01T07:01:03.301Z,13.89
2022-10-01T07:03:31.233Z,13.58
2022-10-01T07:06:05.351Z,13.35
2022-10-01T07:08:33.203Z,12.86
2022-10-01T07:11:05.011Z,13.10
2022-10-01T07:13:31.511Z,12.57
2022-10-01T07:15:58.095Z,12.42
2022-10-01T07:18:24.682Z,12.27
2022-10-01T07:20:51.195Z,12.09
2022-10-01T07:23:17.988Z,12.88
2022-10-01T07:25:45.785Z,14.01
2022-10-01T07:28:18.962Z,14.71
2022-10-01T07:31:11.454Z,15.14
2022-10-01T07:33:41.646Z,15.77
2022-10-01T07:36:10.856Z,16.09
2022-10-01T07:38:37.307Z,16.04
2022-10-01T07:41:04.711Z,16.44
2022-10-01T07:43:34.229Z,16.32
2022-10-01T07:46:02.010Z,17.04
2022-10-01T07:48:28.784Z,16.67
2022-10-01T07:50:55.269Z,15.44
2022-10-01T07:53:23.644Z,14.47
2022-10-01T07:55:50.115Z,13.82
2022-10-01T07:58:16.671Z,13.62
2022-10-01T08:00:43.607Z,13.40
2022-10-01T08:03:12.200Z,13.33
2022-10-01T08:05:42.069Z,13.83
2022-10-01T08:08:09.047Z,13.42
2022-10-01T08:10:38.264Z,13.20
2022-10-01T08:13:14.862Z,13.14
2022-10-01T08:15:43.472Z,13.13
2022-10-01T08:18:11.273Z,13.04
2022-10-01T08:20:39.622Z,13.03
2022-10-01T08:23:10.375Z,12.92
2022-10-01T08:25:37.561Z,12.89
2022-10-01T08:28:04.645Z,12.72
2022-10-01T08:30:31.330Z,12.69
2022-10-01T08:32:59.873Z,12.73
2022-10-01T08:35:28.639Z,12.94
2022-10-01T08:38:02.052Z,13.10
2022-10-01T08:40:29.592Z,13.40
2022-10-01T08:42:56.013Z,13.48
2022-10-01T08:45:51.722Z,13.40
2022-10-01T08:48:46.255Z,13.29
2022-10-01T08:51:29.842Z,13.35
2022-10-01T08:54:04.743Z,13.52
2022-10-01T08:56:35.971Z,13.61
2022-10-01T08:59:33.877Z,13.50
2022-10-01T09:02:00.470Z,13.66
2022-10-01T09:04:27.915Z,13.66
2022-10-01T09:07:19.615Z,13.70
2022-10-01T09:10:17.113Z,13.68
2022-10-01T09:13:13.457Z,13.66
2022-10-01T09:15:51.986Z,13.72
2022-10-01T09:18:28.411Z,13.75
2022-10-01T09:21:00.094Z,14.08
2022-10-01T09:23:29.763Z,14.40
2022-10-01T09:25:59.650Z,14.39
2022-10-01T09:28:34.117Z,14.60
2022-10-01T09:31:17.529Z,14.54
2022-10-01T09:33:55.943Z,14.49
2022-10-01T09:36:49.979Z,14.10
2022-10-01T09:39:39.977Z,13.99
2022-10-01T09:42:06.710Z,13.84
2022-10-01T09:44:34.117Z,13.85
2022-10-01T09:47:01.096Z,13.79
2022-10-01T09:49:39.550Z,13.75
2022-10-01T09:52:30.683Z,13.80
2022-10-01T09:55:11.465Z,13.86
2022-10-01T09:57:43.211Z,13.93
2022-10-01T10:00:25.174Z,14.05
2022-10-01T10:02:54.181Z,14.05
2022-10-01T10:05:26.031Z,13.88
2022-10-01T10:08:03.583Z,13.63
2022-10-01T10:10:35.900Z,13.70
2022-10-01T10:13:20.205Z,13.63
2022-10-01T10:15:53.638Z,13.61
2022-10-01T10:18:28.588Z,13.61
2022-10-01T10:20:56.266Z,13.79
2022-10-01T10:23:29.597Z,13.86
2022-10-01T10:26:03.182Z,13.75
2022-10-01T10:28:43.820Z,13.89
2022-10-01T10:31:19.910Z,13.97
2022-10-01T10:33:57.610Z,13.90
2022-10-01T10:36:29.372Z,13.87
2022-10-01T10:38:57.894Z,13.79
2022-10-01T10:41:26.622Z,13.77
2022-10-01T10:44:07.248Z,13.74
2022-10-01T10:46:38.168Z,13.69
2022-10-01T10:49:08.730Z,13.65
2022-10-01T10:51:56.551Z,13.38
2022-10-01T10:54:41.334Z,13.36
2022-10-01T10:57:21.308Z,13.38
2022-10-01T11:00:00.215Z,13.59
2022-10-01T11:02:32.281Z,13.67
2022-10-01T11:05:03.828Z,13.41
2022-10-01T11:07:31.778Z,13.40
2022-10-01T11:10:04.468Z,13.35
2022-10-01T11:12:34.274Z,13.36
2022-10-01T11:15:26.163Z,13.25
2022-10-01T11:18:16.535Z,13.28
2022-10-01T11:21:04.355Z,13.13
2022-10-01T11:23:55.294Z,12.96
2022-10-01T11:26:25.059Z,12.69
2022-10-01T11:29:00.533Z,12.60
2022-10-01T11:31:51.529Z,12.41
2022-10-01T11:34:39.418Z,12.16
2022-10-01T11:37:16.293Z,11.97
2022-10-01T11:39:44.913Z,11.86
2022-10-01T11:42:18.933Z,11.85
2022-10-01T11:44:52.435Z,11.79
2022-10-01T11:47:30.486Z,11.66
2022-10-01T11:50:03.210Z,11.62
2022-10-01T11:53:20.530Z,11.47
2022-10-01T11:56:12.044Z,11.28
2022-10-01T11:58:58.721Z,11.25
2022-10-01T12:02:02.488Z,11.12
2022-10-01T12:04:32.492Z,11.08
2022-10-01T12:07:16.991Z,10.99
2022-10-01T12:09:55.271Z,10.82
2022-10-01T12:12:30.991Z,10.73
2022-10-01T12:15:11.264Z,10.66
2022-10-01T12:17:54.020Z,10.70
2022-10-01T12:20:29.932Z,10.80
2022-10-01T12:22:59.786Z,10.82
2022-10-01T12:25:44.344Z,10.71
2022-10-01T12:28:18.422Z,10.73
2022-10-01T12:30:53.863Z,10.73
2022-10-01T12:33:39.250Z,10.68
2022-10-01T12:36:11.602Z,10.63
2022-10-01T12:39:29.382Z,10.63
2022-10-01T12:42:07.554Z,10.49
2022-10-01T12:44:39.978Z,10.25
2022-10-01T12:47:29.906Z,10.37
2022-10-01T12:50:12.052Z,10.43
2022-10-01T12:52:38.359Z,10.36
2022-10-01T12:55:13.796Z,10.14
2022-10-01T12:58:15.789Z,10.21
2022-10-01T13:00:52.294Z,10.13
2022-10-01T13:03:21.651Z,10.08
2022-10-01T13:06:23.362Z,9.94
2022-10-01T13:09:06.004Z,9.73
2022-10-01T13:11:49.053Z,9.80
2022-10-01T13:14:18.886Z,9.78
2022-10-01T13:17:05.785Z,9.76
2022-10-01T13:19:39.576Z,9.76
2022-10-01T13:22:14.765Z,9.80
2022-10-01T13:24:51.458Z,9.70
2022-10-01T13:27:46.633Z,9.73
2022-10-01T13:30:18.406Z,9.72
2022-10-01T13:33:00.853Z,9.76
2022-10-01T13:35:35.188Z,9.68
2022-10-01T13:38:29.023Z,9.65
2022-10-01T13:41:01.798Z,9.55
2022-10-01T13:43:30.539Z,9.56
2022-10-01T13:46:07.096Z,9.61
2022-10-01T13:48:35.382Z,9.54
2022-10-01T13:51:11.762Z,9.48
2022-10-01T13:53:50.028Z,9.42
2022-10-01T13:56:37.766Z,9.40
2022-10-01T13:59:21.406Z,9.41
2022-10-01T14:01:47.995Z,9.41
2022-10-01T14:04:38.732Z,9.40
2022-10-01T14:07:17.388Z,9.42
2022-10-01T14:09:52.153Z,9.45
2022-10-01T14:12:55.581Z,9.41
2022-10-01T14:15:44.178Z,9.49
2022-10-01T14:18:22.028Z,9.46
2022-10-01T14:21:03.727Z,9.46
2022-10-01T14:23:56.195Z,9.47
2022-10-01T14:26:52.865Z,9.54
2022-10-01T14:29:31.320Z,9.56
2022-10-01T14:32:14.776Z,9.58
2022-10-01T14:34:54.826Z,9.58
2022-10-01T14:37:21.891Z,9.63
2022-10-01T14:40:01.730Z,9.53
2022-10-01T14:42:28.376Z,9.59
2022-10-01T14:44:54.907Z,9.64
2022-10-01T14:47:27.863Z,9.67
2022-10-01T14:49:55.172Z,9.63
2022-10-01T14:52:29.132Z,9.54
2022-10-01T14:55:05.019Z,9.73
2022-10-01T14:57:38.586Z,9.70
2022-10-01T15:00:14.534Z,9.80
2022-10-01T15:02:44.930Z,9.87
2022-10-01T15:05:27.761Z,9.88
2022-10-01T15:07:54.598Z,9.87
2022-10-01T15:10:25.762Z,9.88
2022-10-01T15:12:55.215Z,9.81
2022-10-01T15:15:31.123Z,9.81
2022-10-01T15:17:58.014Z,9.71
2022-10-01T15:20:24.817Z,9.63
2022-10-01T15:23:00.360Z,9.86
2022-10-01T15:25:30.100Z,9.85
2022-10-01T15:27:56.782Z,9.82
2022-10-01T15:30:26.469Z,9.87
2022-10-01T15:32:53.233Z,9.87
2022-10-01T15:35:22.260Z,9.91
2022-10-01T15:37:51.513Z,9.92
2022-10-01T15:40:26.402Z,9.96
2022-10-01T15:43:26.611Z,9.92
2022-10-01T15:46:05.324Z,9.91
2022-10-01T15:48:33.202Z,9.87
2022-10-01T15:51:03.432Z,9.90
2022-10-01T15:53:31.685Z,9.93
2022-10-01T15:56:00.463Z,9.94
2022-10-01T15:58:27.159Z,9.97
2022-10-01T16:01:05.028Z,9.86
2022-10-01T16:03:41.702Z,9.92
2022-10-01T16:06:20.924Z,9.90
2022-10-01T16:09:06.170Z,9.85
2022-10-01T16:11:52.412Z,9.80
2022-10-01T16:14:21.651Z,9.83
2022-10-01T16:16:50.533Z,9.87
2022-10-01T16:19:28.238Z,9.91
2022-10-01T16:22:14.898Z,9.84
2022-10-01T16:24:44.456Z,9.80
2022-10-01T16:27:43.730Z,9.83
2022-10-01T16:30:18.948Z,9.80
2022-10-01T16:32:45.635Z,9.79
2022-10-01T16:35:21.566Z,9.77
2022-10-01T16:37:50.361Z,9.83
2022-10-01T16:40:22.588Z,9.70
2022-10-01T16:42:50.520Z,9.64
2022-10-01T16:45:24.191Z,9.71
2022-10-01T16:47:51.436Z,9.72
2022-10-01T16:50:21.429Z,9.69
2022-10-01T16:52:51.881Z,9.66
2022-10-01T16:55:26.500Z,9.63
2022-10-01T16:57:57.444Z,9.63
2022-10-01T17:00:26.320Z,9.60
2022-10-01T17:02:57.997Z,9.62
2022-10-01T17:05:26.284Z,9.58
2022-10-01T17:07:54.248Z,9.55
2022-10-01T17:10:23.480Z,9.58
2022-10-01T17:12:50.280Z,9.49
2022-10-01T17:15:20.214Z,9.61
2022-10-01T17:17:46.911Z,9.59
2022-10-01T17:20:14.232Z,9.53
2022-10-01T17:22:42.816Z,9.53
2022-10-01T17:25:15.269Z,9.49
2022-10-01T17:27:41.785Z,9.48
2022-10-01T17:30:08.707Z,9.54
2022-10-01T17:32:37.214Z,9.54
2022-10-01T17:35:04.299Z,9.55
2022-10-01T17:37:31.267Z,9.54
2022-10-01T17:39:57.735Z,9.53
2022-10-01T17:42:24.222Z,9.58
2022-10-01T17:44:51.399Z,9.55
2022-10-01T17:47:17.984Z,9.53
2022-10-01T17:49:44.500Z,9.58
2022-10-01T17:52:11.144Z,9.54
2022-10-01T17:54:38.013Z,9.58
2022-10-01T17:57:05.190Z,9.62
2022-10-01T17:59:31.961Z,9.66
2022-10-01T18:01:58.552Z,9.73
2022-10-01T18:04:27.918Z,9.77
2022-10-01T18:06:59.562Z,9.77
2022-10-01T18:09:26.262Z,9.83
2022-10-01T18:11:52.751Z,9.83
2022-10-01T18:14:19.195Z,9.85
2022-10-01T18:16:45.674Z,9.94
2022-10-01T18:19:52.453Z,9.93
2022-10-01T18:22:01.512Z,9.91
2022-10-01T18:24:29.070Z,9.95
2022-10-01T18:26:56.376Z,9.93
2022-10-01T18:29:25.191Z,9.93
2022-10-01T18:32:02.051Z,10.01
2022-10-01T18:34:38.342Z,10.01
2022-10-01T18:37:15.904Z,10.03
2022-10-01T18:39:45.606Z,10.01
2022-10-01T18:42:17.143Z,10.00
2022-10-01T18:44:43.699Z,10.01
2022-10-01T18:47:10.081Z,10.08
2022-10-01T18:50:06.590Z,10.08
2022-10-01T18:52:51.229Z,10.01
2022-10-01T18:55:27.268Z,10.07
2022-10-01T18:58:05.712Z,10.12
2022-10-01T19:00:49.046Z,10.10
2022-10-01T19:03:53.938Z,10.20
2022-10-01T19:06:29.679Z,10.18
2022-10-01T19:09:05.716Z,10.16
2022-10-01T19:11:38.343Z,10.14
2022-10-01T19:14:23.232Z,10.27
2022-10-01T19:17:08.898Z,10.16
2022-10-01T19:20:14.203Z,10.27
2022-10-01T19:23:13.281Z,10.28
2022-10-01T19:25:51.191Z,10.26
2022-10-01T19:28:26.829Z,10.27
2022-10-01T19:31:19.810Z,10.35
2022-10-01T19:33:55.904Z,10.39
2022-10-01T19:36:34.404Z,10.39
2022-10-01T19:39:06.443Z,10.41
2022-10-01T19:41:33.006Z,10.41
2022-10-01T19:44:28.611Z,10.43
2022-10-01T19:47:00.962Z,10.47
2022-10-01T19:49:34.070Z,10.45
2022-10-01T19:52:09.900Z,10.42
2022-10-01T19:54:45.087Z,10.43
2022-10-01T19:57:23.040Z,10.49
2022-10-01T19:59:55.789Z,10.46
2022-10-01T20:02:31.324Z,10.47
2022-10-01T20:05:16.041Z,10.42
2022-10-01T20:07:51.844Z,10.41
2022-10-01T20:10:32.978Z,10.43
2022-10-01T20:13:14.294Z,10.47
2022-10-01T20:15:55.892Z,10.38
2022-10-01T20:18:40.843Z,10.33
2022-10-01T20:21:22.462Z,10.30
2022-10-01T20:24:16.851Z,10.29
2022-10-01T20:26:43.413Z,10.33
2022-10-01T20:29:21.147Z,10.32
2022-10-01T20:31:57.794Z,10.27
2022-10-01T20:34:58.382Z,10.30
2022-10-01T20:37:57.473Z,10.34
2022-10-01T20:40:39.030Z,10.37
2022-10-01T20:43:12.732Z,10.38
2022-10-01T20:45:40.789Z,10.34
2022-10-01T20:48:15.623Z,10.21
2022-10-01T20:50:45.546Z,10.33
2022-10-01T20:53:44.365Z,10.32
2022-10-01T20:56:15.754Z,10.30
2022-10-01T20:59:15.644Z,10.25
2022-10-01T21:01:56.274Z,10.24
2022-10-01T21:04:28.922Z,10.24
2022-10-01T21:07:01.917Z,10.25
2022-10-01T21:09:38.249Z,10.24
2022-10-01T21:12:19.332Z,10.20
2022-10-01T21:14:51.442Z,10.17
2022-10-01T21:17:56.839Z,10.13
2022-10-01T21:20:23.376Z,10.14
2022-10-01T21:23:08.684Z,10.20
2022-10-01T21:26:03.157Z,10.20
2022-10-01T21:28:57.081Z,10.16
2022-10-01T21:31:50.477Z,10.14
2022-10-01T21:34:29.870Z,10.18
2022-10-01T21:37:08.533Z,10.13
2022-10-01T21:39:48.607Z,10.19
2022-10-01T21:42:15.041Z,10.17
2022-10-01T21:45:16.463Z,10.20
2022-10-01T21:47:52.527Z,10.19
2022-10-01T21:50:48.444Z,10.17
2022-10-01T21:53:49.605Z,10.25
2022-10-01T21:56:24.221Z,10.21
2022-10-01T21:58:59.520Z,10.19
2022-10-01T22:01:44.608Z,10.21
2022-10-01T22:04:27.007Z,10.21
2022-10-01T22:07:16.600Z,10.22
2022-10-01T22:10:17.314Z,10.25
2022-10-01T22:12:50.093Z,10.22
2022-10-01T22:15:25.600Z,10.19
2022-10-01T22:17:54.196Z,10.26
2022-10-01T22:20:30.691Z,10.18
2022-10-01T22:23:03.812Z,10.20
2022-10-01T22:25:32.106Z,10.25
2022-10-01T22:28:07.061Z,10.25
2022-10-01T22:30:37.182Z,10.21
2022-10-01T22:33:15.621Z,10.25
2022-10-01T22:35:53.983Z,10.34
2022-10-01T22:38:39.067Z,10.32
2022-10-01T22:41:25.963Z,10.27
2022-10-01T22:43:52.646Z,10.31
2022-10-01T22:46:37.928Z,10.37
2022-10-01T22:49:27.748Z,10.41
2022-10-01T22:52:18.748Z,10.37
2022-10-01T22:55:09.694Z,10.43
2022-10-01T22:58:17.907Z,10.46
2022-10-01T23:01:22.889Z,10.47
2022-10-01T23:04:04.417Z,10.54
2022-10-01T23:06:57.192Z,10.56
2022-10-01T23:09:36.587Z,10.50
2022-10-01T23:12:09.850Z,10.48
2022-10-01T23:14:48.969Z,10.50
2022-10-01T23:18:06.950Z,10.56
2022-10-01T23:20:35.748Z,10.52
2022-10-01T23:23:14.881Z,10.57
2022-10-01T23:25:59.810Z,10.58
2022-10-01T23:28:29.073Z,10.57
2022-10-01T23:31:06.598Z,10.57
2022-10-01T23:33:52.493Z,10.55
2022-10-01T23:36:24.708Z,10.62
2022-10-01T23:39:07.564Z,10.65
2022-10-01T23:41:58.182Z,10.64
2022-10-01T23:44:50.027Z,10.63
2022-10-01T23:47:24.140Z,10.63
2022-10-01T23:49:55.666Z,10.61
2022-10-01T23:52:32.211Z,10.61
2022-10-01T23:55:28.010Z,10.59
2022-10-01T23:58:03.211Z,10.59
